LFMP/PGF METAR and TAF weather

Enter ICAO airport designator
Station Type Date Time Source
LFMP METAR 2022/01/18 06:30 UTC NOAA

LFMP 180630Z AUTO 24004KT CAVOK 01/M04 Q1029 NOSIG


Station Type Date Time Source
LFMP Decoded METAR 2022/01/18 06:30 UTC NOAA

Perpignan, France (LFMP) 42-44N 002-52E 48M
Jan 18, 2022 - 01:30 AM EST / 2022.01.18 0630 UTC
Wind: from the WSW (240 degrees) at 5 MPH (4 KT):0
Visibility: greater than 7 mile(s):0
Temperature: 33 F (1 C)
Windchill: 28 F (-2 C):1
Dew Point: 24 F (-4 C)
Relative Humidity: 69%
Pressure (altimeter): 30.39 in. Hg (1029 hPa)
ob: LFMP 180630Z AUTO 24004KT CAVOK 01/M04 Q1029 NOSIG
cycle: 6

Station Type Date Time Source
LFMP TAF 2022/01/18 03:47 UTC NOAA

TAF LFMP 180200Z 1803/1903 24005KT CAVOK

Example: see airport list